sensor_id;sensor_type;location;lat;lon;timestamp;pressure;altitude;pressure_sealevel;temperature;humidity
76994;BME280;66749;47.406;18.822;2023-09-18T00:00:11;100629.34;;;19.24;81.99
76994;BME280;66749;47.406;18.822;2023-09-18T00:00:44;100630.19;;;19.24;81.77
76994;BME280;66749;47.406;18.822;2023-09-18T00:01:16;100633.13;;;19.21;82.03
76994;BME280;66749;47.406;18.822;2023-09-18T00:01:51;100627.81;;;19.21;81.79
76994;BME280;66749;47.406;18.822;2023-09-18T00:02:23;100627.69;;;19.23;nan
76994;BME280;66749;47.406;18.822;2023-09-18T00:02:55;100632.00;;;19.24;81.46
76994;BME280;66749;47.406;18.822;2023-09-18T00:03:27;100639.09;;;19.23;81.42
76994;BME280;66749;47.406;18.822;2023-09-18T00:03:59;100635.47;;;19.24;81.96
76994;BME280;66749;47.406;18.822;2023-09-18T00:04:31;100632.00;;;19.24;81.48
76994;BME280;66749;47.406;18.822;2023-09-18T00:05:04;100624.91;;;19.24;81.91
76994;BME280;66749;47.406;18.822;2023-09-18T00:05:36;100631.03;;;19.25;81.81
76994;BME280;66749;47.406;18.822;2023-09-18T00:06:08;100628.22;;;19.26;81.06
76994;BME280;66749;47.406;18.822;2023-09-18T00:06:40;100626.56;;;19.25;81.49
76994;BME280;66749;47.406;18.822;2023-09-18T00:07:12;100619.59;;;19.24;81.61
76994;BME280;66749;47.406;18.822;2023-09-18T00:07:44;100630.19;;;19.24;82.01
76994;BME280;66749;47.406;18.822;2023-09-18T00:08:18;100622.25;;;19.24;81.26
76994;BME280;66749;47.406;18.822;2023-09-18T00:08:51;100626.56;;;19.25;81.33
76994;BME280;66749;47.406;18.822;2023-09-18T00:09:24;100621.28;;;19.25;81.77
76994;BME280;66749;47.406;18.822;2023-09-18T00:09:56;100623.09;;;19.25;81.99
76994;BME280;66749;47.406;18.822;2023-09-18T00:10:28;100627.41;;;19.26;81.44
76994;BME280;66749;47.406;18.822;2023-09-18T00:11:03;100621.28;;;19.25;81.48
76994;BME280;66749;47.406;18.822;2023-09-18T00:11:35;100623.09;;;19.25;81.15
76994;BME280;66749;47.406;18.822;2023-09-18T00:12:07;100624.06;;;19.24;81.75
76994;BME280;66749;47.406;18.822;2023-09-18T00:12:40;100622.25;;;19.24;81.91
76994;BME280;66749;47.406;18.822;2023-09-18T00:13:12;100614.31;;;19.24;81.74
76994;BME280;66749;47.406;18.822;2023-09-18T00:13:44;100617.78;;;19.25;81.53
76994;BME280;66749;47.406;18.822;2023-09-18T00:14:15;100618.78;;;19.24;81.69
76994;BME280;66749;47.406;18.822;2023-09-18T00:14:48;100619.75;;;19.23;81.63
76994;BME280;66749;47.406;18.822;2023-09-18T00:15:21;100627.00;;;19.21;81.25
76994;BME280;66749;47.406;18.822;2023-09-18T00:15:55;100618.22;;;19.20;81.21
76994;BME280;66749;47.406;18.822;2023-09-18T00:16:27;100622.53;;;19.21;81.65
76994;BME280;66749;47.406;18.822;2023-09-18T00:16:59;100623.50;;;19.20;81.32
76994;BME280;66749;47.406;18.822;2023-09-18T00:17:32;100616.53;;;19.19;81.33
76994;BME280;66749;47.406;18.822;2023-09-18T00:18:04;100616.41;;;19.21;81.34
76994;BME280;66749;47.406;18.822;2023-09-18T00:18:36;100621.81;;;19.19;81.70
76994;BME280;66749;47.406;18.822;2023-09-18T00:19:08;100619.16;;;19.19;81.82
76994;BME280;66749;47.406;18.822;2023-09-18T00:19:40;100624.47;;;19.19;81.60
76994;BME280;66749;47.406;18.822;2023-09-18T00:20:12;100616.81;;;19.16;81.85
76994;BME280;66749;47.406;18.822;2023-09-18T00:20:45;100616.81;;;19.16;81.28
76994;BME280;66749;47.406;18.822;2023-09-18T00:21:19;100617.09;;;19.13;81.87
76994;BME280;66749;47.406;18.822;2023-09-18T00:21:51;100616.81;;;19.16;81.51
76994;BME280;66749;47.406;18.822;2023-09-18T00:22:24;100618.63;;;19.16;81.81
76994;BME280;66749;47.406;18.822;2023-09-18T00:22:56;100614.28;;;19.15;81.35
76994;BME280;66749;47.406;18.822;2023-09-18T00:23:28;100614.44;;;19.13;81.60
76994;BME280;66749;47.406;18.822;2023-09-18T00:24:00;100615.28;;;19.13;81.68
76994;BME280;66749;47.406;18.822;2023-09-18T00:24:32;100617.91;;;19.13;81.86
76994;BME280;66749;47.406;18.822;2023-09-18T00:25:04;100619.59;;;19.15;81.12
76994;BME280;66749;47.406;18.822;2023-09-18T00:25:36;100616.25;;;19.12;81.61
76994;BME280;66749;47.406;18.822;2023-09-18T00:26:14;100620.56;;;19.13;81.77
76994;BME280;66749;47.406;18.822;2023-09-18T00:26:47;100614.28;;;19.15;81.94
76994;BME280;66749;47.406;18.822;2023-09-18T00:27:19;100616.94;;;19.15;81.77
76994;BME280;66749;47.406;18.822;2023-09-18T00:27:51;100616.38;;;19.11;81.21
76994;BME280;66749;47.406;18.822;2023-09-18T00:28:25;100619.84;;;19.11;81.72
76994;BME280;66749;47.406;18.822;2023-09-18T00:28:57;100618.16;;;19.10;81.14
76994;BME280;66749;47.406;18.822;2023-09-18T00:29:29;100610.38;;;19.09;81.31
76994;BME280;66749;47.406;18.822;2023-09-18T00:30:03;100619.97;;;19.10;81.30
76994;BME280;66749;47.406;18.822;2023-09-18T00:30:37;100620.97;;;19.09;81.84
76994;BME280;66749;47.406;18.822;2023-09-18T00:31:09;100614.84;;;19.08;81.40
76994;BME280;66749;47.406;18.822;2023-09-18T00:31:41;100619.44;;;19.06;81.25
76994;BME280;66749;47.406;18.822;2023-09-18T00:32:13;100617.63;;;19.07;81.26
76994;BME280;66749;47.406;18.822;2023-09-18T00:32:45;100626.53;;;19.06;81.24
76994;BME280;66749;47.406;18.822;2023-09-18T00:33:19;100616.09;;;19.04;81.37
76994;BME280;66749;47.406;18.822;2023-09-18T00:33:51;100612.34;;;19.07;81.95
76994;BME280;66749;47.406;18.822;2023-09-18T00:34:23;100618.47;;;19.07;81.42
76994;BME280;66749;47.406;18.822;2023-09-18T00:34:55;100619.28;;;19.08;81.33
76994;BME280;66749;47.406;18.822;2023-09-18T00:35:27;100614.97;;;19.07;81.83
76994;BME280;66749;47.406;18.822;2023-09-18T00:35:59;100613.31;;;19.06;81.73
76994;BME280;66749;47.406;18.822;2023-09-18T00:36:31;100620.28;;;19.07;81.40
76994;BME280;66749;47.406;18.822;2023-09-18T00:37:03;100612.59;;;19.04;81.77
76994;BME280;66749;47.406;18.822;2023-09-18T00:37:35;100618.59;;;19.06;81.46
76994;BME280;66749;47.406;18.822;2023-09-18T00:38:08;100617.75;;;19.05;81.57
76994;BME280;66749;47.406;18.822;2023-09-18T00:38:41;100617.88;;;19.04;80.85
76994;BME280;66749;47.406;18.822;2023-09-18T00:39:12;100617.19;;;19.02;81.41
76994;BME280;66749;47.406;18.822;2023-09-18T00:39:46;100611.75;;;19.03;80.87
76994;BME280;66749;47.406;18.822;2023-09-18T00:40:18;100617.03;;;19.03;81.04
76994;BME280;66749;47.406;18.822;2023-09-18T00:40:50;100609.25;;;19.02;81.40
76994;BME280;66749;47.406;18.822;2023-09-18T00:41:22;100612.88;;;19.01;81.51
76994;BME280;66749;47.406;18.822;2023-09-18T00:41:54;100617.31;;;19.00;81.11
76994;BME280;66749;47.406;18.822;2023-09-18T00:42:26;100615.66;;;18.99;81.37
76994;BME280;66749;47.406;18.822;2023-09-18T00:42:58;100611.19;;;19.00;81.70
76994;BME280;66749;47.406;18.822;2023-09-18T00:43:30;100612.03;;;19.00;81.06
76994;BME280;66749;47.406;18.822;2023-09-18T00:44:02;100607.56;;;19.01;81.62
76994;BME280;66749;47.406;18.822;2023-09-18T00:44:34;100616.34;;;19.01;81.35
76994;BME280;66749;47.406;18.822;2023-09-18T00:45:07;100612.88;;;19.01;80.98
76994;BME280;66749;47.406;18.822;2023-09-18T00:45:42;100618.16;;;19.01;81.28
76994;BME280;66749;47.406;18.822;2023-09-18T00:46:16;100626.09;;;19.01;80.96
76994;BME280;66749;47.406;18.822;2023-09-18T00:46:49;100618.16;;;19.01;80.86
76994;BME280;66749;47.406;18.822;2023-09-18T00:47:21;100614.69;;;19.00;80.98
76994;BME280;66749;47.406;18.822;2023-09-18T00:47:53;100616.50;;;19.00;80.68
76994;BME280;66749;47.406;18.822;2023-09-18T00:48:26;100620.09;;;18.99;81.25
76994;BME280;66749;47.406;18.822;2023-09-18T00:48:59;100622.91;;;18.97;80.97
76994;BME280;66749;47.406;18.822;2023-09-18T00:49:31;100617.72;;;18.96;80.80
76994;BME280;66749;47.406;18.822;2023-09-18T00:50:07;100621.34;;;18.95;81.25
76994;BME280;66749;47.406;18.822;2023-09-18T00:50:41;100621.47;;;18.93;80.79
76994;BME280;66749;47.406;18.822;2023-09-18T00:51:14;100622.31;;;18.94;81.37
76994;BME280;66749;47.406;18.822;2023-09-18T00:51:46;100618.81;;;18.93;81.18
76994;BME280;66749;47.406;18.822;2023-09-18T00:52:20;100625.09;;;18.92;81.00
76994;BME280;66749;47.406;18.822;2023-09-18T00:52:54;100622.31;;;18.94;81.07
76994;BME280;66749;47.406;18.822;2023-09-18T00:53:26;100619.81;;;18.92;80.81
76994;BME280;66749;47.406;18.822;2023-09-18T00:53:59;100625.94;;;18.93;81.31
76994;BME280;66749;47.406;18.822;2023-09-18T00:54:31;100619.94;;;18.91;80.38
76994;BME280;66749;47.406;18.822;2023-09-18T00:55:05;100618.13;;;18.91;80.96
76994;BME280;66749;47.406;18.822;2023-09-18T00:55:39;100622.69;;;18.89;81.31
76994;BME280;66749;47.406;18.822;2023-09-18T00:56:11;100619.22;;;18.89;81.22
76994;BME280;66749;47.406;18.822;2023-09-18T00:56:44;100618.38;;;18.88;80.99
76994;BME280;66749;47.406;18.822;2023-09-18T00:57:17;100620.06;;;18.89;80.50
76994;BME280;66749;47.406;18.822;2023-09-18T00:57:49;100624.50;;;18.89;80.70
76994;BME280;66749;47.406;18.822;2023-09-18T00:58:22;100619.34;;;18.87;80.66
76994;BME280;66749;47.406;18.822;2023-09-18T00:58:54;100621.16;;;18.87;80.94
76994;BME280;66749;47.406;18.822;2023-09-18T00:59:26;100623.81;;;18.87;80.64
76994;BME280;66749;47.406;18.822;2023-09-18T00:59:58;100615.03;;;18.86;81.06
76994;BME280;66749;47.406;18.822;2023-09-18T01:00:30;100614.22;;;18.85;81.01
76994;BME280;66749;47.406;18.822;2023-09-18T01:01:03;100618.81;;;18.83;80.53
76994;BME280;66749;47.406;18.822;2023-09-18T01:01:36;100622.41;;;18.82;80.80
76994;BME280;66749;47.406;18.822;2023-09-18T01:02:08;100616.16;;;18.83;81.22
76994;BME280;66749;47.406;18.822;2023-09-18T01:02:40;100609.19;;;18.82;81.04
76994;BME280;66749;47.406;18.822;2023-09-18T01:03:13;100610.88;;;18.83;80.55
76994;BME280;66749;47.406;18.822;2023-09-18T01:03:51;100607.50;;;18.81;80.50
76994;BME280;66749;47.406;18.822;2023-09-18T01:04:26;100611.84;;;18.82;80.38
76994;BME280;66749;47.406;18.822;2023-09-18T01:05:00;100605.81;;;18.80;81.03
76994;BME280;66749;47.406;18.822;2023-09-18T01:05:33;100613.06;;;18.78;80.64
76994;BME280;66749;47.406;18.822;2023-09-18T01:06:05;100615.84;;;18.77;81.30
76994;BME280;66749;47.406;18.822;2023-09-18T01:06:37;100603.75;;;18.74;81.18
76994;BME280;66749;47.406;18.822;2023-09-18T01:07:09;100605.41;;;18.75;80.79
76994;BME280;66749;47.406;18.822;2023-09-18T01:07:41;100605.53;;;18.74;80.55
76994;BME280;66749;47.406;18.822;2023-09-18T01:08:13;100601.09;;;18.74;80.95
76994;BME280;66749;47.406;18.822;2023-09-18T01:08:45;100602.03;;;18.73;80.58
76994;BME280;66749;47.406;18.822;2023-09-18T01:09:18;100602.03;;;18.73;80.54
76994;BME280;66749;47.406;18.822;2023-09-18T01:09:51;100604.69;;;18.73;80.57
76994;BME280;66749;47.406;18.822;2023-09-18T01:10:29;100596.91;;;18.72;80.84
76994;BME280;66749;47.406;18.822;2023-09-18T01:11:12;100617.22;;;18.71;80.27
76994;BME280;66749;47.406;18.822;2023-09-18T01:13:04;100602.13;;;18.62;80.15
76994;BME280;66749;47.406;18.822;2023-09-18T01:13:57;100610.75;;;18.64;80.54
76994;BME280;66749;47.406;18.822;2023-09-18T01:14:43;100609.91;;;18.64;80.16
76994;BME280;66749;47.406;18.822;2023-09-18T01:15:25;100603.94;;;18.62;80.16
76994;BME280;66749;47.406;18.822;2023-09-18T01:16:04;100607.53;;;18.61;80.09
76994;BME280;66749;47.406;18.822;2023-09-18T01:17:19;100608.50;;;18.60;80.56
76994;BME280;66749;47.406;18.822;2023-09-18T01:17:44;100604.31;;;18.57;80.60
76994;BME280;66749;47.406;18.822;2023-09-18T01:18:17;100607.94;;;18.56;80.40
76994;BME280;66749;47.406;18.822;2023-09-18T01:18:51;100604.59;;;18.54;80.42
76994;BME280;66749;47.406;18.822;2023-09-18T01:19:44;100601.25;;;18.52;80.44
76994;BME280;66749;47.406;18.822;2023-09-18T01:20:19;100608.19;;;18.53;80.19
76994;BME280;66749;47.406;18.822;2023-09-18T01:20:51;100602.91;;;18.53;80.38
76994;BME280;66749;47.406;18.822;2023-09-18T01:21:23;100601.34;;;18.50;80.25
76994;BME280;66749;47.406;18.822;2023-09-18T01:21:54;100605.09;;;18.48;80.38
76994;BME280;66749;47.406;18.822;2023-09-18T01:22:30;100609.56;;;18.47;80.58
76994;BME280;66749;47.406;18.822;2023-09-18T01:23:02;100605.09;;;18.48;80.30
76994;BME280;66749;47.406;18.822;2023-09-18T01:23:34;100599.81;;;18.48;80.49
76994;BME280;66749;47.406;18.822;2023-09-18T01:24:06;100603.16;;;18.50;80.39
76994;BME280;66749;47.406;18.822;2023-09-18T01:24:39;100606.09;;;18.47;80.58
76994;BME280;66749;47.406;18.822;2023-09-18T01:25:11;100606.31;;;18.44;80.66
76994;BME280;66749;47.406;18.822;2023-09-18T01:25:43;100603.69;;;18.44;80.46
76994;BME280;66749;47.406;18.822;2023-09-18T01:26:15;100603.69;;;18.44;80.26
76994;BME280;66749;47.406;18.822;2023-09-18T01:26:47;100603.69;;;18.44;80.44
76994;BME280;66749;47.406;18.822;2023-09-18T01:27:19;100605.63;;;18.42;80.51
76994;BME280;66749;47.406;18.822;2023-09-18T01:27:51;100606.59;;;18.41;80.30
76994;BME280;66749;47.406;18.822;2023-09-18T01:28:23;100611.06;;;18.40;80.67
76994;BME280;66749;47.406;18.822;2023-09-18T01:28:55;100605.63;;;18.42;80.56
76994;BME280;66749;47.406;18.822;2023-09-18T01:29:27;100599.66;;;18.40;80.94
76994;BME280;66749;47.406;18.822;2023-09-18T01:29:59;100598.66;;;18.41;80.79
76994;BME280;66749;47.406;18.822;2023-09-18T01:30:31;100605.91;;;18.39;80.43
76994;BME280;66749;47.406;18.822;2023-09-18T01:31:03;100600.63;;;18.39;80.49
76994;BME280;66749;47.406;18.822;2023-09-18T01:31:35;100602.56;;;18.37;80.56
76994;BME280;66749;47.406;18.822;2023-09-18T01:32:07;100603.63;;;18.34;80.64
76994;BME280;66749;47.406;18.822;2023-09-18T01:32:39;100599.91;;;18.37;80.69
76994;BME280;66749;47.406;18.822;2023-09-18T01:33:14;100601.59;;;18.38;80.59
76994;BME280;66749;47.406;18.822;2023-09-18T01:33:46;100602.44;;;18.38;80.47
76994;BME280;66749;47.406;18.822;2023-09-18T01:34:21;100601.59;;;18.38;80.84
76994;BME280;66749;47.406;18.822;2023-09-18T01:34:57;100605.19;;;18.37;80.50
76994;BME280;66749;47.406;18.822;2023-09-18T01:35:33;100599.91;;;18.37;80.64
76994;BME280;66749;47.406;18.822;2023-09-18T01:36:08;100600.84;;;18.36;80.43
76994;BME280;66749;47.406;18.822;2023-09-18T01:36:40;100607.84;;;18.37;80.86
76994;BME280;66749;47.406;18.822;2023-09-18T01:37:15;100606.97;;;18.36;80.50
76994;BME280;66749;47.406;18.822;2023-09-18T01:37:47;100606.16;;;18.36;80.82
76994;BME280;66749;47.406;18.822;2023-09-18T01:38:19;100606.16;;;18.36;81.03
76994;BME280;66749;47.406;18.822;2023-09-18T01:38:52;100608.09;;;18.34;80.71
76994;BME280;66749;47.406;18.822;2023-09-18T01:39:27;100602.81;;;18.34;81.06
76994;BME280;66749;47.406;18.822;2023-09-18T01:40:05;100605.31;;;18.35;80.59
76994;BME280;66749;47.406;18.822;2023-09-18T01:40:39;100602.81;;;18.34;81.08
76994;BME280;66749;47.406;18.822;2023-09-18T01:41:11;100602.25;;;18.30;80.94
76994;BME280;66749;47.406;18.822;2023-09-18T01:41:43;100599.72;;;18.28;81.21
76994;BME280;66749;47.406;18.822;2023-09-18T01:42:16;100605.84;;;18.29;80.84
76994;BME280;66749;47.406;18.822;2023-09-18T01:42:48;100605.84;;;18.29;81.24
76994;BME280;66749;47.406;18.822;2023-09-18T01:43:20;100603.31;;;18.27;80.94
76994;BME280;66749;47.406;18.822;2023-09-18T01:43:52;100602.34;;;18.28;80.85
76994;BME280;66749;47.406;18.822;2023-09-18T01:44:24;100600.81;;;18.26;80.89
76994;BME280;66749;47.406;18.822;2023-09-18T01:44:56;100599.97;;;18.25;81.29
76994;BME280;66749;47.406;18.822;2023-09-18T01:45:28;100606.09;;;18.26;81.17
76994;BME280;66749;47.406;18.822;2023-09-18T01:46:00;100600.13;;;18.24;81.55
76994;BME280;66749;47.406;18.822;2023-09-18T01:46:33;100600.25;;;18.22;81.28
76994;BME280;66749;47.406;18.822;2023-09-18T01:47:18;100599.97;;;18.25;81.28
76994;BME280;66749;47.406;18.822;2023-09-18T01:47:51;100597.47;;;18.24;81.14
76994;BME280;66749;47.406;18.822;2023-09-18T01:48:23;100600.81;;;18.26;81.45
76994;BME280;66749;47.406;18.822;2023-09-18T01:48:55;100599.97;;;18.25;81.06
76994;BME280;66749;47.406;18.822;2023-09-18T01:49:38;100606.94;;;18.26;81.23
76994;BME280;66749;47.406;18.822;2023-09-18T01:50:10;100602.75;;;18.24;81.23
76994;BME280;66749;47.406;18.822;2023-09-18T01:50:42;100597.59;;;18.22;81.22
76994;BME280;66749;47.406;18.822;2023-09-18T01:51:14;100607.22;;;18.23;81.26
76994;BME280;66749;47.406;18.822;2023-09-18T01:51:47;100599.41;;;18.22;81.82
76994;BME280;66749;47.406;18.822;2023-09-18T01:52:19;100605.53;;;18.22;81.46
76994;BME280;66749;47.406;18.822;2023-09-18T01:52:51;100602.16;;;18.20;81.39
76994;BME280;66749;47.406;18.822;2023-09-18T01:53:23;100600.63;;;18.18;81.64
76994;BME280;66749;47.406;18.822;2023-09-18T01:53:56;100603.28;;;18.18;81.85
76994;BME280;66749;47.406;18.822;2023-09-18T01:54:28;100601.59;;;18.17;82.08
76994;BME280;66749;47.406;18.822;2023-09-18T01:55:00;100597.44;;;18.14;81.98
76994;BME280;66749;47.406;18.822;2023-09-18T01:55:32;100598.13;;;18.16;81.73
76994;BME280;66749;47.406;18.822;2023-09-18T01:56:04;100599.94;;;18.16;81.88
76994;BME280;66749;47.406;18.822;2023-09-18T01:56:36;100588.53;;;18.15;81.69
76994;BME280;66749;47.406;18.822;2023-09-18T01:57:08;100598.25;;;18.15;81.86
76994;BME280;66749;47.406;18.822;2023-09-18T01:57:40;100598.25;;;18.15;81.93
76994;BME280;66749;47.406;18.822;2023-09-18T01:58:13;100589.50;;;18.14;82.14
76994;BME280;66749;47.406;18.822;2023-09-18T01:58:47;100601.00;;;18.13;82.81
76994;BME280;66749;47.406;18.822;2023-09-18T01:59:21;100595.72;;;18.13;82.32
76994;BME280;66749;47.406;18.822;2023-09-18T01:59:54;100593.81;;;18.15;82.11
76994;BME280;66749;47.406;18.822;2023-09-18T02:00:26;100601.88;;;18.14;82.26
76994;BME280;66749;47.406;18.822;2023-09-18T02:01:00;100596.69;;;18.12;82.39
76994;BME280;66749;47.406;18.822;2023-09-18T02:01:33;100596.69;;;18.12;82.05
76994;BME280;66749;47.406;18.822;2023-09-18T02:02:07;100599.34;;;18.12;82.77
76994;BME280;66749;47.406;18.822;2023-09-18T02:02:43;100601.00;;;18.13;82.70
76994;BME280;66749;47.406;18.822;2023-09-18T02:03:26;100599.34;;;18.12;82.56
76994;BME280;66749;47.406;18.822;2023-09-18T02:04:18;100602.81;;;18.13;82.51
76994;BME280;66749;47.406;18.822;2023-09-18T02:04:53;100599.34;;;18.12;82.60
76994;BME280;66749;47.406;18.822;2023-09-18T02:05:40;100604.63;;;18.12;82.53
76994;BME280;66749;47.406;18.822;2023-09-18T02:06:13;100600.16;;;18.13;82.41
76994;BME280;66749;47.406;18.822;2023-09-18T02:06:47;100597.66;;;18.11;82.53
76994;BME280;66749;47.406;18.822;2023-09-18T02:07:19;100597.66;;;18.11;82.51
76994;BME280;66749;47.406;18.822;2023-09-18T02:07:51;100597.66;;;18.11;82.59
76994;BME280;66749;47.406;18.822;2023-09-18T02:08:24;100603.09;;;18.10;82.69
76994;BME280;66749;47.406;18.822;2023-09-18T02:08:56;100597.81;;;18.10;82.74
76994;BME280;66749;47.406;18.822;2023-09-18T02:09:28;100599.59;;;18.09;82.47
76994;BME280;66749;47.406;18.822;2023-09-18T02:10:00;100599.59;;;18.09;82.60
76994;BME280;66749;47.406;18.822;2023-09-18T02:10:32;100594.31;;;18.09;82.93
76994;BME280;66749;47.406;18.822;2023-09-18T02:11:03;100597.94;;;18.08;83.14
76994;BME280;66749;47.406;18.822;2023-09-18T02:11:47;100601.53;;;18.07;82.63
76994;BME280;66749;47.406;18.822;2023-09-18T02:12:19;100603.91;;;18.10;82.54
76994;BME280;66749;47.406;18.822;2023-09-18T02:12:51;100596.81;;;18.11;82.73
76994;BME280;66749;47.406;18.822;2023-09-18T02:13:23;100602.94;;;18.11;82.75
76994;BME280;66749;47.406;18.822;2023-09-18T02:13:55;100599.59;;;18.09;82.43
76994;BME280;66749;47.406;18.822;2023-09-18T02:14:28;100599.59;;;18.09;82.59
76994;BME280;66749;47.406;18.822;2023-09-18T02:15:02;100590.84;;;18.09;82.63
76994;BME280;66749;47.406;18.822;2023-09-18T02:15:38;100607.53;;;18.09;82.60
76994;BME280;66749;47.406;18.822;2023-09-18T02:16:10;100601.53;;;18.07;82.64
76994;BME280;66749;47.406;18.822;2023-09-18T02:16:43;100604.88;;;18.09;82.67
76994;BME280;66749;47.406;18.822;2023-09-18T02:17:15;100605.03;;;18.08;82.59
76994;BME280;66749;47.406;18.822;2023-09-18T02:17:47;100602.38;;;18.08;83.04
76994;BME280;66749;47.406;18.822;2023-09-18T02:18:19;100604.06;;;18.09;83.04
76994;BME280;66749;47.406;18.822;2023-09-18T02:18:51;100599.59;;;18.09;83.02
76994;BME280;66749;47.406;18.822;2023-09-18T02:19:23;100599.59;;;18.09;82.77
76994;BME280;66749;47.406;18.822;2023-09-18T02:19:55;100596.97;;;18.09;82.80
76994;BME280;66749;47.406;18.822;2023-09-18T02:20:27;100596.97;;;18.09;82.95
76994;BME280;66749;47.406;18.822;2023-09-18T02:20:58;100602.25;;;18.09;82.69
76994;BME280;66749;47.406;18.822;2023-09-18T02:21:31;100601.53;;;18.07;82.95
76994;BME280;66749;47.406;18.822;2023-09-18T02:22:03;100600.56;;;18.08;82.89
76994;BME280;66749;47.406;18.822;2023-09-18T02:22:35;100606.84;;;18.07;82.63
76994;BME280;66749;47.406;18.822;2023-09-18T02:23:07;100599.75;;;18.08;83.13
76994;BME280;66749;47.406;18.822;2023-09-18T02:23:39;100602.38;;;18.08;83.20
76994;BME280;66749;47.406;18.822;2023-09-18T02:24:10;100607.66;;;18.08;82.94
76994;BME280;66749;47.406;18.822;2023-09-18T02:24:42;100605.16;;;18.06;83.04
76994;BME280;66749;47.406;18.822;2023-09-18T02:25:14;100604.44;;;18.04;83.27
76994;BME280;66749;47.406;18.822;2023-09-18T02:25:46;100608.03;;;18.03;82.65
76994;BME280;66749;47.406;18.822;2023-09-18T02:26:19;100611.38;;;18.05;83.07
76994;BME280;66749;47.406;18.822;2023-09-18T02:26:51;100609.00;;;18.02;83.11
76994;BME280;66749;47.406;18.822;2023-09-18T02:27:23;100610.69;;;18.03;82.95
76994;BME280;66749;47.406;18.822;2023-09-18T02:27:56;100604.69;;;18.01;82.99
76994;BME280;66749;47.406;18.822;2023-09-18T02:28:28;100605.66;;;18.00;83.30
76994;BME280;66749;47.406;18.822;2023-09-18T02:29:02;100613.59;;;18.00;83.72
76994;BME280;66749;47.406;18.822;2023-09-18T02:29:34;100609.97;;;18.01;84.14
76994;BME280;66749;47.406;18.822;2023-09-18T02:30:07;100610.13;;;17.99;83.63
76994;BME280;66749;47.406;18.822;2023-09-18T02:30:39;100610.13;;;17.99;83.27
76994;BME280;66749;47.406;18.822;2023-09-18T02:31:11;100611.06;;;17.98;83.62
76994;BME280;66749;47.406;18.822;2023-09-18T02:31:43;100613.59;;;18.00;83.30
76994;BME280;66749;47.406;18.822;2023-09-18T02:32:15;100608.53;;;17.97;83.54
76994;BME280;66749;47.406;18.822;2023-09-18T02:32:47;100609.50;;;17.96;83.70
76994;BME280;66749;47.406;18.822;2023-09-18T02:33:19;100605.91;;;17.97;83.36
76994;BME280;66749;47.406;18.822;2023-09-18T02:33:51;100607.84;;;17.95;83.81
76994;BME280;66749;47.406;18.822;2023-09-18T02:34:23;100610.34;;;17.96;84.52
76994;BME280;66749;47.406;18.822;2023-09-18T02:34:55;100611.19;;;17.97;84.48
76994;BME280;66749;47.406;18.822;2023-09-18T02:35:27;100610.47;;;17.95;84.51
76994;BME280;66749;47.406;18.822;2023-09-18T02:35:59;100614.78;;;17.96;83.99
76994;BME280;66749;47.406;18.822;2023-09-18T02:36:30;100610.47;;;17.95;83.81
76994;BME280;66749;47.406;18.822;2023-09-18T02:37:02;100613.25;;;17.93;83.83
76994;BME280;66749;47.406;18.822;2023-09-18T02:37:34;100609.78;;;17.93;83.76
76994;BME280;66749;47.406;18.822;2023-09-18T02:38:06;100615.06;;;17.93;84.35
76994;BME280;66749;47.406;18.822;2023-09-18T02:38:38;100599.91;;;17.95;84.00
76994;BME280;66749;47.406;18.822;2023-09-18T02:39:10;100607.16;;;17.93;83.76
76994;BME280;66749;47.406;18.822;2023-09-18T02:39:42;100610.63;;;17.93;84.27
76994;BME280;66749;47.406;18.822;2023-09-18T02:40:14;100610.63;;;17.93;84.05
76994;BME280;66749;47.406;18.822;2023-09-18T02:40:46;100610.03;;;17.90;84.80
76994;BME280;66749;47.406;18.822;2023-09-18T02:41:18;100608.13;;;17.92;84.67
76994;BME280;66749;47.406;18.822;2023-09-18T02:41:50;100605.47;;;17.92;85.09
76994;BME280;66749;47.406;18.822;2023-09-18T02:42:21;100617.44;;;17.96;85.32
76994;BME280;66749;47.406;18.822;2023-09-18T02:42:53;100605.06;;;17.96;85.28
76994;BME280;66749;47.406;18.822;2023-09-18T02:43:25;100612.84;;;17.98;85.13
76994;BME280;66749;47.406;18.822;2023-09-18T02:43:58;100608.41;;;17.98;85.43
76994;BME280;66749;47.406;18.822;2023-09-18T02:44:29;100609.97;;;18.01;85.27
76994;BME280;66749;47.406;18.822;2023-09-18T02:45:02;100609.16;;;18.00;85.26
76994;BME280;66749;47.406;18.822;2023-09-18T02:45:33;100612.63;;;18.01;85.43
76994;BME280;66749;47.406;18.822;2023-09-18T02:46:06;100610.69;;;18.03;85.39
76994;BME280;66749;47.406;18.822;2023-09-18T02:46:39;100615.97;;;18.03;85.12
76994;BME280;66749;47.406;18.822;2023-09-18T02:47:11;100610.69;;;18.03;84.91
76994;BME280;66749;47.406;18.822;2023-09-18T02:47:43;100611.66;;;18.02;85.32
76994;BME280;66749;47.406;18.822;2023-09-18T02:48:15;100609.00;;;18.02;85.21
76994;BME280;66749;47.406;18.822;2023-09-18T02:48:47;100614.03;;;18.05;85.46
76994;BME280;66749;47.406;18.822;2023-09-18T02:49:19;100615.00;;;18.04;85.36
76994;BME280;66749;47.406;18.822;2023-09-18T02:49:52;100614.84;;;18.06;85.16
76994;BME280;66749;47.406;18.822;2023-09-18T02:50:24;100611.38;;;18.05;85.26
76994;BME280;66749;47.406;18.822;2023-09-18T02:50:56;100615.72;;;18.06;85.73
76994;BME280;66749;47.406;18.822;2023-09-18T02:51:28;100622.78;;;18.06;85.45
76994;BME280;66749;47.406;18.822;2023-09-18T02:52:03;100618.38;;;18.06;85.08
76994;BME280;66749;47.406;18.822;2023-09-18T02:52:35;100612.94;;;18.08;84.85